createdAt,value
2023-05-17T00:01:50.207Z,7.40
2023-05-17T00:04:18.492Z,7.40
2023-05-17T00:06:46.845Z,7.40
2023-05-17T00:09:14.996Z,7.50
2023-05-17T00:11:43.153Z,7.40
2023-05-17T00:14:11.676Z,7.30
2023-05-17T00:16:39.981Z,7.30
2023-05-17T00:19:10.660Z,7.30
2023-05-17T00:21:39.241Z,7.30
2023-05-17T00:24:07.949Z,7.30
2023-05-17T00:26:36.704Z,7.30
2023-05-17T00:29:04.944Z,7.30
2023-05-17T00:31:33.143Z,7.30
2023-05-17T00:34:01.420Z,7.30
2023-05-17T00:36:31.144Z,7.30
2023-05-17T00:38:59.224Z,7.30
2023-05-17T00:41:27.580Z,7.30
2023-05-17T00:43:56.285Z,7.30
2023-05-17T00:46:26.798Z,7.20
2023-05-17T00:49:00.409Z,7.20
2023-05-17T00:51:31.786Z,7.10
2023-05-17T00:56:52.213Z,6.90
2023-05-17T00:59:26.651Z,6.90
2023-05-17T01:01:57.963Z,6.90
2023-05-17T01:04:28.448Z,6.80
2023-05-17T01:06:58.384Z,6.80
2023-05-17T01:09:26.782Z,6.80
2023-05-17T01:12:08.523Z,6.60
2023-05-17T01:14:52.623Z,6.70
2023-05-17T01:20:30.914Z,6.60
2023-05-17T01:23:45.376Z,6.50
2023-05-17T01:29:11.868Z,6.50
2023-05-17T01:31:42.946Z,6.50
2023-05-17T01:34:14.434Z,6.50
2023-05-17T01:36:58.586Z,6.50
2023-05-17T01:39:28.412Z,6.60
2023-05-17T01:42:03.729Z,6.50
2023-05-17T01:44:42.470Z,6.60
2023-05-17T01:47:18.560Z,6.60
2023-05-17T01:49:50.901Z,6.60
2023-05-17T01:52:31.956Z,6.60
2023-05-17T01:55:17.465Z,6.60
2023-05-17T02:00:56.523Z,6.60
2023-05-17T02:06:12.068Z,6.50
2023-05-17T02:08:42.830Z,6.40
2023-05-17T02:11:21.005Z,6.40
2023-05-17T02:13:51.641Z,6.40
2023-05-17T02:16:36.246Z,6.40
2023-05-17T02:19:07.739Z,6.40
2023-05-17T02:21:37.535Z,6.40
2023-05-17T02:24:06.636Z,6.30
2023-05-17T02:26:42.451Z,6.30
2023-05-17T02:29:12.219Z,6.30
2023-05-17T02:31:42.244Z,6.30
2023-05-17T02:34:11.598Z,6.30
2023-05-17T02:36:41.777Z,6.40
2023-05-17T02:39:18.506Z,6.30
2023-05-17T02:42:01.799Z,6.30
2023-05-17T02:44:32.258Z,6.30
2023-05-17T02:47:04.317Z,6.30
2023-05-17T02:49:35.063Z,6.20
2023-05-17T02:52:06.339Z,6.10
2023-05-17T02:54:37.101Z,6.10
2023-05-17T02:57:22.800Z,6.00
2023-05-17T02:59:51.895Z,6.00
2023-05-17T03:02:37.011Z,6.10
2023-05-17T03:05:06.081Z,6.00
2023-05-17T03:07:36.809Z,6.00
2023-05-17T03:10:14.008Z,6.00
2023-05-17T03:12:45.479Z,5.90
2023-05-17T03:15:14.873Z,5.90
2023-05-17T03:17:46.815Z,5.90
2023-05-17T03:20:17.528Z,5.90
2023-05-17T03:22:51.614Z,5.90
2023-05-17T03:25:23.386Z,5.90
2023-05-17T03:28:16.564Z,5.90
2023-05-17T03:30:45.073Z,5.90
2023-05-17T03:33:17.450Z,5.80
2023-05-17T03:38:31.635Z,5.80
2023-05-17T03:41:01.245Z,5.70
2023-05-17T03:43:33.678Z,5.80
2023-05-17T03:46:04.424Z,5.80
2023-05-17T03:48:49.906Z,5.90
2023-05-17T03:54:02.126Z,5.80
2023-05-17T03:56:32.696Z,5.80
2023-05-17T03:59:01.856Z,5.80
2023-05-17T04:01:31.794Z,5.90
2023-05-17T04:04:07.538Z,6.00
2023-05-17T04:06:35.961Z,6.10
2023-05-17T04:09:10.787Z,6.20
2023-05-17T04:11:40.861Z,6.20
2023-05-17T04:14:11.550Z,6.30
2023-05-17T04:16:48.772Z,6.30
2023-05-17T04:22:06.326Z,6.40
2023-05-17T04:24:46.915Z,6.40
2023-05-17T04:27:16.352Z,6.50
2023-05-17T04:29:46.852Z,6.50
2023-05-17T04:32:18.941Z,6.70
2023-05-17T04:34:52.656Z,6.80
2023-05-17T04:37:23.536Z,6.80
2023-05-17T04:42:37.642Z,6.90
2023-05-17T04:45:07.707Z,6.90
2023-05-17T04:47:41.328Z,7.00
2023-05-17T04:50:11.781Z,7.10
2023-05-17T04:52:43.344Z,7.10
2023-05-17T04:57:58.996Z,7.10
2023-05-17T05:00:27.257Z,7.20
2023-05-17T05:02:59.200Z,7.30
2023-05-17T05:05:29.035Z,7.30
2023-05-17T05:08:06.374Z,7.40
2023-05-17T05:10:36.804Z,7.60
2023-05-17T05:13:04.957Z,7.80
2023-05-17T05:15:36.965Z,7.90
2023-05-17T05:18:11.542Z,8.00
2023-05-17T05:20:45.360Z,8.20
2023-05-17T05:23:13.569Z,8.30
2023-05-17T05:25:45.787Z,8.50
2023-05-17T05:28:26.312Z,8.60
2023-05-17T05:31:01.966Z,8.70
2023-05-17T05:33:36.704Z,8.90
2023-05-17T05:36:12.434Z,9.00
2023-05-17T05:38:42.877Z,9.10
2023-05-17T05:41:12.465Z,9.20
2023-05-17T05:43:47.038Z,9.20
2023-05-17T05:46:17.828Z,9.30
2023-05-17T05:48:46.067Z,9.40
2023-05-17T05:51:34.810Z,9.40
2023-05-17T05:54:05.910Z,9.40
2023-05-17T05:56:36.423Z,9.40
2023-05-17T06:01:47.870Z,9.80
2023-05-17T06:07:19.884Z,10.20
2023-05-17T06:09:56.812Z,10.10
2023-05-17T06:12:27.269Z,10.00
2023-05-17T06:15:00.529Z,10.30
2023-05-17T06:17:34.552Z,10.30
2023-05-17T06:20:06.813Z,10.50
2023-05-17T06:22:44.572Z,10.50
2023-05-17T06:25:16.525Z,10.50
2023-05-17T06:27:47.693Z,10.60
2023-05-17T06:33:04.981Z,10.80
2023-05-17T06:35:54.632Z,11.20
2023-05-17T06:38:29.403Z,11.50
2023-05-17T06:43:51.624Z,12.10
2023-05-17T06:46:21.341Z,11.90
2023-05-17T06:48:51.172Z,11.90
2023-05-17T06:51:20.876Z,11.90
2023-05-17T06:53:53.008Z,12.10
2023-05-17T06:59:07.819Z,12.00
2023-05-17T07:01:36.547Z,12.10
2023-05-17T07:04:06.609Z,12.10
2023-05-17T07:09:35.914Z,12.20
2023-05-17T07:12:17.096Z,12.20
2023-05-17T07:14:51.257Z,12.10
2023-05-17T07:17:23.386Z,12.40
2023-05-17T07:19:55.414Z,12.30
2023-05-17T07:22:23.674Z,12.50
2023-05-17T07:25:03.301Z,12.40
2023-05-17T07:27:32.733Z,12.60
2023-05-17T07:30:16.641Z,12.70
2023-05-17T07:32:47.493Z,12.90
2023-05-17T07:35:23.520Z,13.20
2023-05-17T07:38:02.712Z,13.30
2023-05-17T07:40:50.611Z,13.30
2023-05-17T07:43:19.225Z,13.30
2023-05-17T07:46:01.681Z,13.20
2023-05-17T07:48:36.280Z,13.10
2023-05-17T07:51:06.966Z,13.10
2023-05-17T07:53:37.263Z,13.30
2023-05-17T07:56:16.717Z,13.40
2023-05-17T07:58:45.002Z,13.20
2023-05-17T08:01:13.144Z,12.90
2023-05-17T08:03:48.144Z,12.70
2023-05-17T08:06:16.909Z,12.70
2023-05-17T08:08:45.772Z,12.60
2023-05-17T08:11:15.534Z,13.00
2023-05-17T08:13:44.385Z,13.30
2023-05-17T08:16:14.628Z,13.00
2023-05-17T08:18:46.362Z,12.90
2023-05-17T08:21:14.680Z,13.10
2023-05-17T08:23:42.889Z,12.90
2023-05-17T08:26:13.039Z,13.50
2023-05-17T08:28:42.594Z,13.60
2023-05-17T08:31:11.705Z,13.30
2023-05-17T08:33:39.862Z,13.40
2023-05-17T08:36:09.184Z,13.30
2023-05-17T08:38:37.410Z,13.20
2023-05-17T08:41:08.253Z,13.30
2023-05-17T08:46:25.172Z,13.70
2023-05-17T08:48:56.596Z,13.60
2023-05-17T08:51:30.932Z,13.60
2023-05-17T08:54:02.366Z,13.50
2023-05-17T08:56:36.208Z,13.70
2023-05-17T08:59:12.066Z,13.70
2023-05-17T09:01:44.814Z,14.00
2023-05-17T09:04:13.249Z,14.30
2023-05-17T09:06:41.402Z,14.40
2023-05-17T09:09:09.625Z,14.00
2023-05-17T09:11:37.884Z,14.10
2023-05-17T09:14:07.994Z,14.10
2023-05-17T09:16:38.671Z,14.20
2023-05-17T09:19:09.889Z,14.30
2023-05-17T09:21:38.648Z,14.30
2023-05-17T09:24:08.544Z,14.20
2023-05-17T09:26:41.712Z,14.20
2023-05-17T09:29:11.693Z,14.30
2023-05-17T09:31:40.916Z,14.30
2023-05-17T09:34:11.128Z,14.10
2023-05-17T09:36:43.522Z,14.20
2023-05-17T09:39:14.735Z,14.30
2023-05-17T09:41:46.569Z,14.00
2023-05-17T09:44:15.898Z,14.10
2023-05-17T09:46:45.837Z,14.20
2023-05-17T09:49:16.157Z,14.50
2023-05-17T09:51:45.642Z,14.40
2023-05-17T09:54:14.380Z,14.70
2023-05-17T09:56:43.296Z,14.80
2023-05-17T09:59:16.238Z,14.80
2023-05-17T10:01:46.516Z,14.80
2023-05-17T10:04:20.662Z,15.10
2023-05-17T10:06:52.699Z,14.90
2023-05-17T10:09:23.675Z,14.60
2023-05-17T10:11:56.647Z,14.70
2023-05-17T10:14:31.948Z,14.50
2023-05-17T10:17:01.841Z,14.40
2023-05-17T10:19:31.886Z,14.50
2023-05-17T10:22:14.772Z,14.70
2023-05-17T10:24:49.880Z,14.70
2023-05-17T10:27:18.591Z,14.90
2023-05-17T10:29:50.146Z,14.70
2023-05-17T10:32:23.373Z,14.90
2023-05-17T10:35:09.560Z,15.00
2023-05-17T10:37:40.323Z,14.90
2023-05-17T10:40:13.520Z,14.80
2023-05-17T10:42:43.918Z,14.90
2023-05-17T10:45:13.832Z,14.90
2023-05-17T10:47:42.721Z,15.10
2023-05-17T10:50:15.114Z,15.00
2023-05-17T10:52:48.765Z,15.20
2023-05-17T10:55:20.808Z,15.60
2023-05-17T10:58:16.084Z,15.40
2023-05-17T11:00:47.162Z,15.80
2023-05-17T11:03:20.207Z,16.00
2023-05-17T11:06:24.605Z,16.30
2023-05-17T11:09:15.364Z,16.30
2023-05-17T11:12:10.629Z,16.80
2023-05-17T11:14:49.790Z,16.60
2023-05-17T11:17:19.449Z,16.70
2023-05-17T11:19:56.396Z,16.80
2023-05-17T11:22:26.812Z,17.00
2023-05-17T11:24:57.950Z,17.60
2023-05-17T11:27:28.917Z,17.50
2023-05-17T11:29:58.895Z,17.50
2023-05-17T11:32:30.744Z,17.50
2023-05-17T11:35:01.759Z,17.50
2023-05-17T11:37:32.013Z,17.80
2023-05-17T11:40:05.882Z,18.30
2023-05-17T11:42:34.244Z,17.90
2023-05-17T11:45:03.049Z,18.00
2023-05-17T11:47:31.460Z,18.00
2023-05-17T11:50:03.111Z,18.00
2023-05-17T11:52:33.737Z,17.70
2023-05-17T11:55:02.645Z,17.90
2023-05-17T11:57:32.025Z,17.50
2023-05-17T12:00:01.476Z,17.00
2023-05-17T12:02:30.996Z,16.70
2023-05-17T12:04:59.662Z,16.80
2023-05-17T12:07:28.927Z,16.80
2023-05-17T12:09:58.513Z,16.50
2023-05-17T12:12:27.264Z,16.80
2023-05-17T12:14:55.529Z,16.50
2023-05-17T12:17:30.591Z,17.10
2023-05-17T12:20:08.420Z,17.70
2023-05-17T12:22:52.221Z,17.40
2023-05-17T12:25:23.649Z,18.10
2023-05-17T12:27:51.950Z,18.40
2023-05-17T12:30:20.839Z,18.70
2023-05-17T12:32:49.253Z,18.40
2023-05-17T12:35:17.672Z,17.80
2023-05-17T12:37:46.112Z,17.40
2023-05-17T12:40:14.662Z,17.10
2023-05-17T12:42:44.236Z,17.50
2023-05-17T12:45:15.611Z,17.60
2023-05-17T12:47:44.857Z,17.90
2023-05-17T12:50:13.264Z,17.90
2023-05-17T12:52:42.277Z,17.90
2023-05-17T12:55:14.969Z,18.40
2023-05-17T12:57:51.913Z,17.90
2023-05-17T13:00:20.967Z,17.80
2023-05-17T13:02:49.573Z,17.40
2023-05-17T13:05:21.497Z,17.40
2023-05-17T13:07:49.772Z,17.00
2023-05-17T13:10:26.194Z,16.80
2023-05-17T13:13:01.036Z,16.80
2023-05-17T13:15:33.787Z,17.00
2023-05-17T13:18:13.401Z,17.10
2023-05-17T13:20:50.469Z,17.30
2023-05-17T13:23:23.399Z,17.40
2023-05-17T13:25:54.398Z,17.60
2023-05-17T13:28:28.234Z,17.60
2023-05-17T13:30:56.671Z,17.40
2023-05-17T13:33:28.058Z,17.40
2023-05-17T13:38:43.328Z,17.40
2023-05-17T13:41:12.618Z,17.50
2023-05-17T13:43:42.192Z,18.10
2023-05-17T13:46:11.054Z,18.10
2023-05-17T13:48:41.853Z,18.00
2023-05-17T13:51:10.891Z,17.60
2023-05-17T13:53:39.607Z,17.00
2023-05-17T13:56:08.726Z,17.10
2023-05-17T13:58:36.848Z,17.30
2023-05-17T14:01:06.823Z,17.50
2023-05-17T14:03:36.275Z,18.60
2023-05-17T14:06:06.493Z,18.90
2023-05-17T14:08:35.334Z,19.50
2023-05-17T14:11:03.501Z,19.50
2023-05-17T14:13:31.894Z,19.90
2023-05-17T14:16:00.094Z,18.90
2023-05-17T14:18:31.550Z,18.80
2023-05-17T14:21:01.116Z,18.40
2023-05-17T14:23:29.413Z,18.40
2023-05-17T14:25:57.788Z,18.10
2023-05-17T14:28:26.045Z,17.80
2023-05-17T14:30:54.169Z,17.90
2023-05-17T14:33:22.371Z,18.70
2023-05-17T14:35:52.189Z,18.70
2023-05-17T14:38:20.871Z,19.60
2023-05-17T14:40:54.862Z,19.60
2023-05-17T14:43:23.434Z,19.70
2023-05-17T14:45:52.283Z,19.60
2023-05-17T14:48:22.943Z,19.40
2023-05-17T14:50:53.419Z,18.80
2023-05-17T14:53:21.720Z,18.10
2023-05-17T14:55:49.861Z,17.50
2023-05-17T14:58:18.013Z,17.70
2023-05-17T15:00:48.492Z,17.90
2023-05-17T15:03:21.964Z,18.20
2023-05-17T15:05:56.588Z,18.10
2023-05-17T15:08:25.020Z,18.60
2023-05-17T15:10:54.258Z,19.80
2023-05-17T15:13:22.594Z,21.00
2023-05-17T15:15:52.248Z,20.00
2023-05-17T15:18:20.632Z,19.70
2023-05-17T15:20:48.796Z,19.80
2023-05-17T15:23:18.388Z,19.30
2023-05-17T15:25:46.574Z,18.20
2023-05-17T15:28:15.123Z,18.00
2023-05-17T15:30:43.345Z,17.60
2023-05-17T15:33:12.154Z,17.70
2023-05-17T15:35:43.134Z,17.50
2023-05-17T15:38:11.485Z,17.20
2023-05-17T15:40:41.000Z,18.30
2023-05-17T15:43:09.155Z,19.80
2023-05-17T15:45:37.290Z,19.60
2023-05-17T15:48:06.900Z,19.00
2023-05-17T15:50:35.185Z,18.70
2023-05-17T15:53:03.340Z,18.80
2023-05-17T15:55:31.735Z,20.30
2023-05-17T15:58:01.382Z,21.40
2023-05-17T16:00:29.574Z,22.20
2023-05-17T16:02:57.791Z,22.70
2023-05-17T16:05:25.981Z,24.30
2023-05-17T16:07:54.169Z,25.20
2023-05-17T16:10:22.406Z,26.20
2023-05-17T16:12:50.576Z,26.10
2023-05-17T16:15:20.401Z,25.60
2023-05-17T16:17:51.213Z,22.40
2023-05-17T16:20:21.888Z,20.30
2023-05-17T16:22:51.188Z,18.80
2023-05-17T16:25:20.273Z,18.40
2023-05-17T16:27:49.146Z,20.40
2023-05-17T16:30:19.393Z,18.90
2023-05-17T16:32:48.322Z,18.10
2023-05-17T16:35:18.388Z,17.80
2023-05-17T16:37:48.448Z,18.00
2023-05-17T16:40:16.997Z,24.50
2023-05-17T16:42:45.595Z,27.30
2023-05-17T16:45:13.851Z,28.30
2023-05-17T16:47:43.727Z,28.30
2023-05-17T16:50:13.580Z,25.10
2023-05-17T16:52:41.860Z,21.80
2023-05-17T16:55:11.378Z,19.80
2023-05-17T16:57:39.710Z,18.50
2023-05-17T17:00:11.376Z,18.20
2023-05-17T17:02:39.545Z,17.70
2023-05-17T17:05:10.446Z,17.50
2023-05-17T17:07:38.656Z,17.60
2023-05-17T17:10:07.784Z,17.30
2023-05-17T17:12:35.991Z,16.70
2023-05-17T17:15:07.492Z,16.60
2023-05-17T17:17:36.172Z,16.20
2023-05-17T17:20:05.687Z,16.30
2023-05-17T17:22:35.258Z,16.30
2023-05-17T17:25:03.514Z,16.20
2023-05-17T17:27:31.711Z,16.20
2023-05-17T17:30:00.025Z,16.00
2023-05-17T17:32:28.424Z,16.00
2023-05-17T17:34:56.598Z,16.00
2023-05-17T17:37:24.793Z,15.80
2023-05-17T17:39:54.289Z,15.70
2023-05-17T17:42:22.487Z,15.70
2023-05-17T17:44:50.840Z,15.60
2023-05-17T17:47:19.152Z,15.50
2023-05-17T17:49:47.361Z,15.20
2023-05-17T17:52:15.538Z,15.00
2023-05-17T17:54:45.884Z,15.00
2023-05-17T17:57:15.839Z,14.90
2023-05-17T17:59:44.045Z,14.80
2023-05-17T18:02:12.200Z,14.80
2023-05-17T18:04:40.742Z,14.70
2023-05-17T18:07:09.135Z,14.60
2023-05-17T18:09:37.330Z,14.50
2023-05-17T18:12:05.893Z,14.30
2023-05-17T18:14:35.693Z,14.20
2023-05-17T18:17:04.057Z,14.10
2023-05-17T18:19:32.464Z,13.80
2023-05-17T18:22:00.711Z,13.70
2023-05-17T18:24:28.918Z,13.60
2023-05-17T18:26:57.276Z,13.60
2023-05-17T18:29:25.581Z,13.60
2023-05-17T18:31:55.464Z,13.60
2023-05-17T18:34:25.327Z,13.60
2023-05-17T18:36:53.469Z,13.60
2023-05-17T18:39:21.713Z,13.50
2023-05-17T18:41:49.825Z,13.30
2023-05-17T18:44:19.912Z,13.20
2023-05-17T18:46:48.712Z,13.10
2023-05-17T18:49:18.378Z,13.00
2023-05-17T18:51:46.618Z,12.80
2023-05-17T18:54:15.043Z,12.70
2023-05-17T18:56:43.265Z,12.50
2023-05-17T18:59:11.394Z,12.40
2023-05-17T19:01:39.752Z,12.50
2023-05-17T19:04:08.072Z,12.30
2023-05-17T19:06:41.359Z,12.30
2023-05-17T19:09:09.701Z,12.30
2023-05-17T19:11:37.877Z,12.20
2023-05-17T19:14:06.334Z,12.20
2023-05-17T19:16:34.865Z,12.10
2023-05-17T19:19:03.099Z,12.00
2023-05-17T19:21:31.259Z,11.90
2023-05-17T19:24:01.453Z,11.90
2023-05-17T19:26:29.625Z,11.90
2023-05-17T19:28:57.852Z,11.70
2023-05-17T19:31:26.065Z,11.80
2023-05-17T19:33:54.275Z,11.70
2023-05-17T19:36:22.522Z,11.60
2023-05-17T19:38:51.951Z,11.60
2023-05-17T19:41:22.032Z,11.50
2023-05-17T19:43:50.175Z,11.50
2023-05-17T19:46:18.353Z,11.40
2023-05-17T19:48:46.821Z,11.40
2023-05-17T19:51:15.014Z,11.20
2023-05-17T19:53:52.720Z,11.20
2023-05-17T19:56:24.992Z,11.10
2023-05-17T19:58:54.118Z,11.10
2023-05-17T20:01:23.119Z,11.10
2023-05-17T20:03:52.701Z,11.00
2023-05-17T20:06:22.677Z,10.90
2023-05-17T20:08:53.164Z,10.90
2023-05-17T20:11:42.622Z,10.90
2023-05-17T20:14:13.306Z,10.80
2023-05-17T20:16:42.066Z,10.70
2023-05-17T20:19:10.273Z,10.70
2023-05-17T20:21:38.527Z,10.60
2023-05-17T20:24:07.391Z,10.50
2023-05-17T20:26:37.259Z,10.50
2023-05-17T20:29:08.194Z,10.40
2023-05-17T20:31:52.202Z,10.40
2023-05-17T20:34:27.943Z,10.30
2023-05-17T20:37:12.248Z,10.30
2023-05-17T20:39:41.947Z,10.30
2023-05-17T20:42:19.884Z,10.20
2023-05-17T20:44:53.857Z,10.10
2023-05-17T20:47:27.299Z,10.10
2023-05-17T20:50:04.494Z,10.00
2023-05-17T20:52:39.595Z,10.10
2023-05-17T20:55:12.611Z,9.90
2023-05-17T21:00:28.587Z,9.80
2023-05-17T21:02:57.274Z,9.80
2023-05-17T21:05:25.768Z,9.60
2023-05-17T21:07:56.349Z,9.60
2023-05-17T21:10:24.545Z,9.50
2023-05-17T21:12:52.933Z,9.50
2023-05-17T21:15:21.202Z,9.50
2023-05-17T21:17:50.790Z,9.50
2023-05-17T21:20:20.034Z,9.50
2023-05-17T21:22:49.587Z,9.40
2023-05-17T21:25:18.212Z,9.40
2023-05-17T21:27:46.504Z,9.50
2023-05-17T21:30:14.875Z,9.40
2023-05-17T21:32:43.265Z,9.50
2023-05-17T21:35:12.953Z,9.50
2023-05-17T21:37:42.021Z,9.50
2023-05-17T21:40:11.272Z,9.40
2023-05-17T21:42:39.474Z,9.30
2023-05-17T21:45:08.977Z,9.30
2023-05-17T21:47:37.197Z,9.30
2023-05-17T21:50:05.986Z,9.30
2023-05-17T21:52:35.766Z,9.30
2023-05-17T21:55:04.044Z,9.30
2023-05-17T21:57:36.147Z,9.30
2023-05-17T22:00:05.856Z,9.30
2023-05-17T22:02:35.208Z,9.30
2023-05-17T22:05:03.576Z,9.30
2023-05-17T22:07:31.801Z,9.40
2023-05-17T22:10:02.393Z,9.20
2023-05-17T22:12:30.554Z,9.00
2023-05-17T22:14:58.986Z,8.90
2023-05-17T22:17:35.281Z,8.80
2023-05-17T22:20:11.952Z,8.70
2023-05-17T22:22:40.229Z,8.70
2023-05-17T22:25:10.965Z,8.70
2023-05-17T22:27:39.139Z,8.60
2023-05-17T22:30:09.031Z,8.50
2023-05-17T22:32:38.383Z,8.50
2023-05-17T22:35:07.121Z,8.50
2023-05-17T22:37:37.979Z,8.40
2023-05-17T22:40:08.196Z,8.40
2023-05-17T22:42:37.754Z,8.40
2023-05-17T22:45:06.495Z,8.30
2023-05-17T22:47:35.289Z,8.30
2023-05-17T22:50:03.514Z,8.30
2023-05-17T22:52:31.675Z,8.30
2023-05-17T22:54:59.867Z,8.20
2023-05-17T22:57:28.099Z,8.10
2023-05-17T22:59:57.638Z,8.10
2023-05-17T23:02:25.873Z,8.00
2023-05-17T23:04:54.120Z,7.90
2023-05-17T23:07:23.355Z,7.90
2023-05-17T23:09:53.797Z,7.80
2023-05-17T23:12:21.960Z,7.80
2023-05-17T23:14:50.071Z,7.70
2023-05-17T23:17:19.616Z,7.60
2023-05-17T23:19:47.732Z,7.60
2023-05-17T23:22:16.678Z,7.60
2023-05-17T23:24:46.597Z,7.60
2023-05-17T23:27:15.376Z,7.50
2023-05-17T23:29:43.514Z,7.50
2023-05-17T23:32:11.668Z,7.40
2023-05-17T23:34:42.826Z,7.40
2023-05-17T23:37:11.005Z,7.40
2023-05-17T23:39:39.151Z,7.40
2023-05-17T23:42:10.224Z,7.40
2023-05-17T23:44:41.997Z,7.40
2023-05-17T23:47:12.411Z,7.20
2023-05-17T23:49:42.259Z,7.30
2023-05-17T23:52:11.058Z,7.20
2023-05-17T23:54:39.813Z,7.30
2023-05-17T23:57:09.008Z,7.20
2023-05-17T23:59:37.531Z,7.10
